sensor_id;sensor_type;location;lat;lon;timestamp;pressure;altitude;pressure_sealevel;temperature;humidity
13604;BME280;24578;48.264;11.436;2024-03-07T00:00:13;96522.38;;;2.71;100.00
13604;BME280;24578;48.264;11.436;2024-03-07T00:06:23;96515.78;;;2.65;100.00
13604;BME280;24578;48.264;11.436;2024-03-07T00:12:25;96514.31;;;2.58;100.00
13604;BME280;24578;48.264;11.436;2024-03-07T00:18:29;96517.22;;;2.49;100.00
13604;BME280;24578;48.264;11.436;2024-03-07T00:24:32;96511.44;;;2.43;100.00
13604;BME280;24578;48.264;11.436;2024-03-07T00:30:34;96509.22;;;2.34;100.00
13604;BME280;24578;48.264;11.436;2024-03-07T00:36:36;96511.06;;;2.29;100.00
13604;BME280;24578;48.264;11.436;2024-03-07T00:42:38;96517.06;;;2.28;100.00
13604;BME280;24578;48.264;11.436;2024-03-07T00:48:39;96510.25;;;2.28;100.00
13604;BME280;24578;48.264;11.436;2024-03-07T00:54:45;96507.59;;;2.32;100.00
13604;BME280;24578;48.264;11.436;2024-03-07T01:00:47;96502.53;;;2.30;100.00
13604;BME280;24578;48.264;11.436;2024-03-07T01:06:50;96494.94;;;2.28;100.00
13604;BME280;24578;48.264;11.436;2024-03-07T01:12:51;96489.91;;;2.25;100.00
13604;BME280;24578;48.264;11.436;2024-03-07T01:18:55;96488.09;;;2.29;100.00
13604;BME280;24578;48.264;11.436;2024-03-07T01:24:56;96486.38;;;2.30;100.00
13604;BME280;24578;48.264;11.436;2024-03-07T01:30:58;96484.66;;;2.30;100.00
13604;BME280;24578;48.264;11.436;2024-03-07T01:37:00;96482.81;;;2.34;100.00
13604;BME280;24578;48.264;11.436;2024-03-07T01:43:07;96473.34;;;2.37;100.00
13604;BME280;24578;48.264;11.436;2024-03-07T01:49:09;96468.13;;;2.40;100.00
13604;BME280;24578;48.264;11.436;2024-03-07T01:55:11;96460.84;;;2.30;100.00
13604;BME280;24578;48.264;11.436;2024-03-07T02:01:16;96455.31;;;2.17;100.00
13604;BME280;24578;48.264;11.436;2024-03-07T02:07:18;96441.31;;;2.03;100.00
13604;BME280;24578;48.264;11.436;2024-03-07T02:13:19;96433.13;;;1.93;100.00
13604;BME280;24578;48.264;11.436;2024-03-07T02:19:21;96442.03;;;1.81;100.00
13604;BME280;24578;48.264;11.436;2024-03-07T02:25:23;96443.41;;;1.66;100.00
13604;BME280;24578;48.264;11.436;2024-03-07T02:31:24;96428.50;;;1.54;100.00
13604;BME280;24578;48.264;11.436;2024-03-07T02:37:36;96428.84;;;1.43;100.00
13604;BME280;24578;48.264;11.436;2024-03-07T02:43:38;96430.94;;;1.32;100.00
13604;BME280;24578;48.264;11.436;2024-03-07T02:49:40;96425.94;;;1.27;100.00
13604;BME280;24578;48.264;11.436;2024-03-07T02:55:42;96423.53;;;1.24;100.00
13604;BME280;24578;48.264;11.436;2024-03-07T03:01:43;96421.00;;;1.23;100.00
13604;BME280;24578;48.264;11.436;2024-03-07T03:07:45;96432.16;;;1.20;100.00
13604;BME280;24578;48.264;11.436;2024-03-07T03:13:55;96426.25;;;1.18;100.00
13604;BME280;24578;48.264;11.436;2024-03-07T03:19:57;96431.34;;;1.18;100.00
13604;BME280;24578;48.264;11.436;2024-03-07T03:25:58;96431.41;;;1.16;100.00
13604;BME280;24578;48.264;11.436;2024-03-07T03:32:01;96425.41;;;1.17;100.00
13604;BME280;24578;48.264;11.436;2024-03-07T03:38:03;96438.06;;;1.20;100.00
13604;BME280;24578;48.264;11.436;2024-03-07T03:44:05;96427.88;;;1.20;100.00
13604;BME280;24578;48.264;11.436;2024-03-07T03:50:12;96426.09;;;1.23;100.00
13604;BME280;24578;48.264;11.436;2024-03-07T03:56:16;96430.22;;;1.27;100.00
13604;BME280;24578;48.264;11.436;2024-03-07T04:02:32;96422.50;;;1.30;100.00
13604;BME280;24578;48.264;11.436;2024-03-07T04:08:34;96425.03;;;1.30;100.00
13604;BME280;24578;48.264;11.436;2024-03-07T04:14:41;96418.28;;;1.29;100.00
13604;BME280;24578;48.264;11.436;2024-03-07T04:20:44;96419.97;;;1.28;100.00
13604;BME280;24578;48.264;11.436;2024-03-07T04:26:46;96419.34;;;1.21;100.00
13604;BME280;24578;48.264;11.436;2024-03-07T04:32:49;96419.25;;;1.25;100.00
13604;BME280;24578;48.264;11.436;2024-03-07T04:38:52;96411.75;;;1.20;100.00
13604;BME280;24578;48.264;11.436;2024-03-07T04:44:54;96411.69;;;1.21;100.00
13604;BME280;24578;48.264;11.436;2024-03-07T04:50:56;96410.06;;;1.19;100.00
13604;BME280;24578;48.264;11.436;2024-03-07T04:56:59;96416.94;;;1.17;100.00
13604;BME280;24578;48.264;11.436;2024-03-07T05:03:01;96410.09;;;1.17;100.00
13604;BME280;24578;48.264;11.436;2024-03-07T05:09:05;96409.22;;;1.18;100.00
13604;BME280;24578;48.264;11.436;2024-03-07T05:15:11;96411.75;;;1.20;100.00
13604;BME280;24578;48.264;11.436;2024-03-07T05:21:13;96423.81;;;1.15;100.00
13604;BME280;24578;48.264;11.436;2024-03-07T05:27:33;96429.88;;;1.11;100.00
13604;BME280;24578;48.264;11.436;2024-03-07T05:33:38;96438.47;;;1.08;100.00
13604;BME280;24578;48.264;11.436;2024-03-07T05:39:41;96433.44;;;1.05;100.00
13604;BME280;24578;48.264;11.436;2024-03-07T05:45:44;96435.41;;;0.97;100.00
13604;BME280;24578;48.264;11.436;2024-03-07T05:51:49;96432.38;;;0.85;100.00
13604;BME280;24578;48.264;11.436;2024-03-07T05:57:51;96428.50;;;0.72;100.00
13604;BME280;24578;48.264;11.436;2024-03-07T06:03:57;96426.16;;;0.66;100.00
13604;BME280;24578;48.264;11.436;2024-03-07T06:09:58;96429.50;;;0.68;100.00
13604;BME280;24578;48.264;11.436;2024-03-07T06:16:00;96433.56;;;0.73;100.00
13604;BME280;24578;48.264;11.436;2024-03-07T06:22:08;96441.72;;;0.85;100.00
13604;BME280;24578;48.264;11.436;2024-03-07T06:28:10;96434.56;;;0.96;100.00
13604;BME280;24578;48.264;11.436;2024-03-07T06:34:13;96427.44;;;1.08;100.00
13604;BME280;24578;48.264;11.436;2024-03-07T06:40:15;96438.84;;;1.23;100.00
13604;BME280;24578;48.264;11.436;2024-03-07T06:46:22;96434.22;;;1.35;100.00
13604;BME280;24578;48.264;11.436;2024-03-07T06:52:25;96439.44;;;1.58;100.00
13604;BME280;24578;48.264;11.436;2024-03-07T06:58:28;96438.25;;;1.68;100.00
13604;BME280;24578;48.264;11.436;2024-03-07T07:04:34;96432.00;;;1.77;100.00
13604;BME280;24578;48.264;11.436;2024-03-07T07:10:49;96443.16;;;1.74;100.00
13604;BME280;24578;48.264;11.436;2024-03-07T07:17:09;96435.06;;;1.87;100.00
13604;BME280;24578;48.264;11.436;2024-03-07T07:23:21;96428.44;;;2.06;100.00
13604;BME280;24578;48.264;11.436;2024-03-07T07:29:24;96427.28;;;2.15;100.00
13604;BME280;24578;48.264;11.436;2024-03-07T07:35:26;96419.78;;;2.34;100.00
13604;BME280;24578;48.264;11.436;2024-03-07T07:41:28;96429.06;;;2.61;100.00
13604;BME280;24578;48.264;11.436;2024-03-07T07:47:30;96420.97;;;2.71;100.00
13604;BME280;24578;48.264;11.436;2024-03-07T07:53:35;96411.09;;;2.84;100.00
13604;BME280;24578;48.264;11.436;2024-03-07T07:59:37;96415.09;;;2.92;100.00
13604;BME280;24578;48.264;11.436;2024-03-07T08:05:38;96420.22;;;2.92;100.00
13604;BME280;24578;48.264;11.436;2024-03-07T08:11:40;96417.69;;;3.12;100.00
13604;BME280;24578;48.264;11.436;2024-03-07T08:17:43;96421.16;;;3.33;100.00
13604;BME280;24578;48.264;11.436;2024-03-07T08:23:46;96404.22;;;4.12;100.00
13604;BME280;24578;48.264;11.436;2024-03-07T08:29:47;96406.06;;;5.22;100.00
13604;BME280;24578;48.264;11.436;2024-03-07T08:35:50;96402.16;;;6.36;100.00
13604;BME280;24578;48.264;11.436;2024-03-07T08:41:54;96391.47;;;7.83;100.00
13604;BME280;24578;48.264;11.436;2024-03-07T08:47:57;96381.56;;;8.77;100.00
13604;BME280;24578;48.264;11.436;2024-03-07T08:54:00;96384.56;;;8.56;100.00
13604;BME280;24578;48.264;11.436;2024-03-07T09:00:06;96386.94;;;9.28;100.00
13604;BME280;24578;48.264;11.436;2024-03-07T09:06:13;96389.66;;;9.53;100.00
13604;BME280;24578;48.264;11.436;2024-03-07T09:12:20;96392.91;;;8.74;100.00
13604;BME280;24578;48.264;11.436;2024-03-07T09:18:22;96382.91;;;8.41;100.00
13604;BME280;24578;48.264;11.436;2024-03-07T09:24:26;96379.31;;;8.14;100.00
13604;BME280;24578;48.264;11.436;2024-03-07T09:30:27;96382.44;;;8.05;100.00
13604;BME280;24578;48.264;11.436;2024-03-07T09:36:33;96388.72;;;8.01;100.00
13604;BME280;24578;48.264;11.436;2024-03-07T09:42:48;96382.16;;;7.95;100.00
13604;BME280;24578;48.264;11.436;2024-03-07T09:48:53;96375.16;;;8.12;100.00
13604;BME280;24578;48.264;11.436;2024-03-07T09:54:56;96369.53;;;8.19;100.00
13604;BME280;24578;48.264;11.436;2024-03-07T10:01:02;96364.94;;;8.53;98.94
13604;BME280;24578;48.264;11.436;2024-03-07T10:07:04;96369.31;;;9.48;92.96
13604;BME280;24578;48.264;11.436;2024-03-07T10:13:06;96371.28;;;9.83;80.62
13604;BME280;24578;48.264;11.436;2024-03-07T10:19:10;96362.72;;;9.96;74.15
13604;BME280;24578;48.264;11.436;2024-03-07T10:25:13;96344.53;;;10.60;72.17
13604;BME280;24578;48.264;11.436;2024-03-07T10:31:29;96343.34;;;12.41;61.56
13604;BME280;24578;48.264;11.436;2024-03-07T10:37:34;96351.59;;;11.07;65.25
13604;BME280;24578;48.264;11.436;2024-03-07T10:43:37;96343.34;;;10.40;70.85
13604;BME280;24578;48.264;11.436;2024-03-07T10:49:52;96344.38;;;10.25;74.03
13604;BME280;24578;48.264;11.436;2024-03-07T11:02:54;96331.78;;;13.76;54.17
13604;BME280;24578;48.264;11.436;2024-03-07T11:09:01;96323.13;;;14.88;50.89
13604;BME280;24578;48.264;11.436;2024-03-07T11:15:06;96326.84;;;14.75;51.19
13604;BME280;24578;48.264;11.436;2024-03-07T11:21:46;96332.97;;;12.53;53.25
13604;BME280;24578;48.264;11.436;2024-03-07T11:28:06;96329.19;;;10.94;61.16
13604;BME280;24578;48.264;11.436;2024-03-07T11:34:15;96314.41;;;11.08;62.44
13604;BME280;24578;48.264;11.436;2024-03-07T11:46:26;96295.41;;;12.68;55.17
13604;BME280;24578;48.264;11.436;2024-03-07T11:52:31;96285.31;;;12.86;52.18
13604;BME280;24578;48.264;11.436;2024-03-07T11:58:40;96267.38;;;13.04;53.76
13604;BME280;24578;48.264;11.436;2024-03-07T12:04:42;96275.25;;;12.49;53.29
13604;BME280;24578;48.264;11.436;2024-03-07T12:10:44;96270.72;;;11.03;56.23
13604;BME280;24578;48.264;11.436;2024-03-07T12:16:50;96276.25;;;10.37;60.78
13604;BME280;24578;48.264;11.436;2024-03-07T12:22:58;96265.38;;;10.69;62.08
13604;BME280;24578;48.264;11.436;2024-03-07T12:29:10;96264.16;;;10.86;60.75
13604;BME280;24578;48.264;11.436;2024-03-07T12:35:13;96257.97;;;10.64;60.89
13604;BME280;24578;48.264;11.436;2024-03-07T12:41:15;96260.09;;;10.71;60.41
13604;BME280;24578;48.264;11.436;2024-03-07T12:47:18;96248.00;;;10.34;62.13
13604;BME280;24578;48.264;11.436;2024-03-07T12:53:21;96237.25;;;11.58;57.68
13604;BME280;24578;48.264;11.436;2024-03-07T12:59:23;96234.97;;;11.54;56.73
13604;BME280;24578;48.264;11.436;2024-03-07T13:05:26;96226.50;;;11.63;53.98
13604;BME280;24578;48.264;11.436;2024-03-07T13:11:28;96224.59;;;11.42;55.55
13604;BME280;24578;48.264;11.436;2024-03-07T13:17:32;96228.22;;;10.70;57.09
13604;BME280;24578;48.264;11.436;2024-03-07T13:23:35;96225.41;;;10.12;58.41
13604;BME280;24578;48.264;11.436;2024-03-07T13:29:38;96222.06;;;10.23;60.73
13604;BME280;24578;48.264;11.436;2024-03-07T13:35:41;96225.66;;;10.33;59.88
13604;BME280;24578;48.264;11.436;2024-03-07T13:41:43;96224.25;;;9.79;62.14
13604;BME280;24578;48.264;11.436;2024-03-07T13:47:49;96221.38;;;9.70;61.92
13604;BME280;24578;48.264;11.436;2024-03-07T13:53:58;96208.63;;;10.55;60.13
13604;BME280;24578;48.264;11.436;2024-03-07T14:00:53;96207.19;;;10.38;59.84
13604;BME280;24578;48.264;11.436;2024-03-07T14:07:48;96213.97;;;9.40;64.43
13604;BME280;24578;48.264;11.436;2024-03-07T14:27:15;96194.53;;;8.95;67.60
13604;BME280;24578;48.264;11.436;2024-03-07T14:33:27;96211.00;;;8.67;73.43
13604;BME280;24578;48.264;11.436;2024-03-07T14:39:29;96205.50;;;8.31;81.16
13604;BME280;24578;48.264;11.436;2024-03-07T14:45:39;96201.38;;;8.29;81.76
13604;BME280;24578;48.264;11.436;2024-03-07T14:51:42;96209.78;;;7.76;87.44
13604;BME280;24578;48.264;11.436;2024-03-07T14:57:59;96204.53;;;7.49;92.12
13604;BME280;24578;48.264;11.436;2024-03-07T15:04:01;96210.53;;;7.06;99.48
13604;BME280;24578;48.264;11.436;2024-03-07T15:10:07;96215.28;;;6.97;100.00
13604;BME280;24578;48.264;11.436;2024-03-07T15:16:13;96207.19;;;6.89;100.00
13604;BME280;24578;48.264;11.436;2024-03-07T15:22:33;96209.75;;;6.59;100.00
13604;BME280;24578;48.264;11.436;2024-03-07T15:28:35;96201.34;;;6.85;100.00
13604;BME280;24578;48.264;11.436;2024-03-07T15:34:37;96204.81;;;6.70;100.00
13604;BME280;24578;48.264;11.436;2024-03-07T15:40:39;96197.72;;;6.59;100.00
13604;BME280;24578;48.264;11.436;2024-03-07T15:46:41;96201.97;;;6.60;99.99
13604;BME280;24578;48.264;11.436;2024-03-07T15:52:43;96190.69;;;6.47;96.41
13604;BME280;24578;48.264;11.436;2024-03-07T15:58:45;96191.88;;;6.41;89.48
13604;BME280;24578;48.264;11.436;2024-03-07T16:04:50;96193.88;;;6.36;88.00
13604;BME280;24578;48.264;11.436;2024-03-07T16:10:52;96186.03;;;6.23;84.75
13604;BME280;24578;48.264;11.436;2024-03-07T16:16:54;96188.75;;;6.20;87.14
13604;BME280;24578;48.264;11.436;2024-03-07T16:22:56;96184.53;;;6.19;86.45
13604;BME280;24578;48.264;11.436;2024-03-07T16:28:58;96189.94;;;5.98;89.85
13604;BME280;24578;48.264;11.436;2024-03-07T16:35:01;96202.84;;;5.81;92.11
13604;BME280;24578;48.264;11.436;2024-03-07T16:41:03;96190.34;;;5.90;88.31
13604;BME280;24578;48.264;11.436;2024-03-07T16:47:05;96192.31;;;5.69;91.25
13604;BME280;24578;48.264;11.436;2024-03-07T16:53:11;96198.09;;;5.57;91.75
13604;BME280;24578;48.264;11.436;2024-03-07T16:59:13;96189.63;;;5.39;93.14
13604;BME280;24578;48.264;11.436;2024-03-07T17:05:15;96204.19;;;5.38;94.85
13604;BME280;24578;48.264;11.436;2024-03-07T17:11:16;96200.19;;;5.16;99.20
13604;BME280;24578;48.264;11.436;2024-03-07T17:17:18;96201.91;;;5.16;100.00
13604;BME280;24578;48.264;11.436;2024-03-07T17:23:20;96206.38;;;5.12;100.00
13604;BME280;24578;48.264;11.436;2024-03-07T17:29:24;96202.88;;;4.80;100.00
13604;BME280;24578;48.264;11.436;2024-03-07T17:35:28;96210.03;;;4.73;100.00
13604;BME280;24578;48.264;11.436;2024-03-07T17:41:31;96207.88;;;4.46;100.00
13604;BME280;24578;48.264;11.436;2024-03-07T17:47:33;96206.41;;;4.42;100.00
13604;BME280;24578;48.264;11.436;2024-03-07T17:53:35;96221.25;;;4.35;100.00
13604;BME280;24578;48.264;11.436;2024-03-07T17:59:39;96217.47;;;4.06;100.00
13604;BME280;24578;48.264;11.436;2024-03-07T18:05:42;96223.03;;;3.96;100.00
13604;BME280;24578;48.264;11.436;2024-03-07T18:11:52;96215.00;;;3.66;100.00
13604;BME280;24578;48.264;11.436;2024-03-07T18:17:58;96218.94;;;3.54;100.00
13604;BME280;24578;48.264;11.436;2024-03-07T18:24:00;96228.94;;;3.40;100.00
13604;BME280;24578;48.264;11.436;2024-03-07T18:30:02;96215.38;;;3.18;100.00
13604;BME280;24578;48.264;11.436;2024-03-07T18:36:12;96219.44;;;3.03;100.00
13604;BME280;24578;48.264;11.436;2024-03-07T18:42:14;96202.88;;;2.92;100.00
13604;BME280;24578;48.264;11.436;2024-03-07T18:48:17;96211.56;;;2.87;100.00
13604;BME280;24578;48.264;11.436;2024-03-07T18:54:19;96214.66;;;2.73;100.00
13604;BME280;24578;48.264;11.436;2024-03-07T19:00:25;96214.59;;;2.54;100.00
13604;BME280;24578;48.264;11.436;2024-03-07T19:06:36;96207.25;;;2.47;100.00
13604;BME280;24578;48.264;11.436;2024-03-07T19:12:44;96209.09;;;2.43;100.00
13604;BME280;24578;48.264;11.436;2024-03-07T19:18:45;96202.94;;;2.26;100.00
13604;BME280;24578;48.264;11.436;2024-03-07T19:24:48;96210.25;;;2.13;100.00
13604;BME280;24578;48.264;11.436;2024-03-07T19:30:51;96209.94;;;1.99;100.00
13604;BME280;24578;48.264;11.436;2024-03-07T19:36:53;96204.63;;;2.05;100.00
13604;BME280;24578;48.264;11.436;2024-03-07T19:42:55;96204.94;;;1.96;100.00
13604;BME280;24578;48.264;11.436;2024-03-07T19:48:57;96197.84;;;1.82;100.00
13604;BME280;24578;48.264;11.436;2024-03-07T19:54:59;96205.88;;;1.71;100.00
13604;BME280;24578;48.264;11.436;2024-03-07T20:01:04;96204.41;;;1.65;100.00
13604;BME280;24578;48.264;11.436;2024-03-07T20:07:06;96209.00;;;1.56;100.00
13604;BME280;24578;48.264;11.436;2024-03-07T20:13:12;96205.06;;;1.47;100.00
13604;BME280;24578;48.264;11.436;2024-03-07T20:19:15;96201.47;;;1.52;100.00
13604;BME280;24578;48.264;11.436;2024-03-07T20:25:18;96194.38;;;1.37;100.00
13604;BME280;24578;48.264;11.436;2024-03-07T20:31:20;96202.44;;;1.48;100.00
13604;BME280;24578;48.264;11.436;2024-03-07T20:37:22;96192.03;;;1.55;100.00
13604;BME280;24578;48.264;11.436;2024-03-07T20:43:24;96193.34;;;1.17;100.00
13604;BME280;24578;48.264;11.436;2024-03-07T20:49:26;96193.50;;;1.14;100.00
13604;BME280;24578;48.264;11.436;2024-03-07T20:55:28;96188.94;;;0.99;100.00
13604;BME280;24578;48.264;11.436;2024-03-07T21:01:30;96186.38;;;0.99;100.00
13604;BME280;24578;48.264;11.436;2024-03-07T21:07:32;96188.34;;;0.90;100.00
13604;BME280;24578;48.264;11.436;2024-03-07T21:13:38;96185.50;;;1.00;100.00
13604;BME280;24578;48.264;11.436;2024-03-07T21:19:40;96175.16;;;0.79;100.00
13604;BME280;24578;48.264;11.436;2024-03-07T21:25:43;96169.00;;;0.85;100.00
13604;BME280;24578;48.264;11.436;2024-03-07T21:31:44;96172.59;;;0.79;100.00
13604;BME280;24578;48.264;11.436;2024-03-07T21:37:47;96167.50;;;0.79;100.00
13604;BME280;24578;48.264;11.436;2024-03-07T21:43:50;96163.38;;;0.75;100.00
13604;BME280;24578;48.264;11.436;2024-03-07T21:49:53;96147.56;;;0.65;100.00
13604;BME280;24578;48.264;11.436;2024-03-07T21:55:55;96148.44;;;0.66;100.00
13604;BME280;24578;48.264;11.436;2024-03-07T22:01:58;96149.88;;;0.73;100.00
13604;BME280;24578;48.264;11.436;2024-03-07T22:08:00;96137.38;;;0.65;100.00
13604;BME280;24578;48.264;11.436;2024-03-07T22:14:03;96148.47;;;0.39;100.00
13604;BME280;24578;48.264;11.436;2024-03-07T22:20:05;96131.31;;;0.44;100.00
13604;BME280;24578;48.264;11.436;2024-03-07T22:26:10;96126.31;;;0.41;100.00
13604;BME280;24578;48.264;11.436;2024-03-07T22:32:13;96129.28;;;0.28;100.00
13604;BME280;24578;48.264;11.436;2024-03-07T22:38:15;96120.91;;;0.25;100.00
13604;BME280;24578;48.264;11.436;2024-03-07T22:44:17;96111.38;;;0.05;100.00
13604;BME280;24578;48.264;11.436;2024-03-07T22:50:19;96098.97;;;0.21;100.00
13604;BME280;24578;48.264;11.436;2024-03-07T22:56:31;96103.50;;;0.12;100.00
13604;BME280;24578;48.264;11.436;2024-03-07T23:02:33;96097.34;;;-0.07;100.00
13604;BME280;24578;48.264;11.436;2024-03-07T23:08:37;96098.41;;;-0.14;100.00
13604;BME280;24578;48.264;11.436;2024-03-07T23:14:38;96080.03;;;-0.23;100.00
13604;BME280;24578;48.264;11.436;2024-03-07T23:20:40;96075.66;;;-0.19;100.00
13604;BME280;24578;48.264;11.436;2024-03-07T23:26:43;96084.66;;;-0.36;100.00
13604;BME280;24578;48.264;11.436;2024-03-07T23:32:50;96078.19;;;-0.46;100.00
13604;BME280;24578;48.264;11.436;2024-03-07T23:38:54;96074.13;;;-0.52;100.00
13604;BME280;24578;48.264;11.436;2024-03-07T23:44:55;96067.09;;;-0.43;100.00
13604;BME280;24578;48.264;11.436;2024-03-07T23:50:59;96067.09;;;-0.43;100.00
13604;BME280;24578;48.264;11.436;2024-03-07T23:57:02;96053.63;;;-0.47;100.00
